createdAt,value
2019-05-02T00:00:58.431Z,30.50
2019-05-02T00:03:28.751Z,35.15
2019-05-02T00:05:57.770Z,32.07
2019-05-02T00:08:29.344Z,34.67
2019-05-02T00:10:58.400Z,33.40
2019-05-02T00:13:27.405Z,35.17
2019-05-02T00:15:56.339Z,35.30
2019-05-02T00:18:26.604Z,40.60
2019-05-02T00:20:57.190Z,35.03
2019-05-02T00:23:28.033Z,34.77
2019-05-02T00:25:56.610Z,26.10
2019-05-02T00:28:25.426Z,38.60
2019-05-02T00:30:54.572Z,34.27
2019-05-02T00:33:23.385Z,36.30
2019-05-02T00:35:52.120Z,30.80
2019-05-02T00:38:20.891Z,34.05
2019-05-02T00:40:49.618Z,33.60
2019-05-02T00:43:18.407Z,36.57
2019-05-02T00:45:47.261Z,32.97
2019-05-02T00:48:19.272Z,36.77
2019-05-02T00:50:50.929Z,34.97
2019-05-02T00:53:18.656Z,32.35
2019-05-02T00:55:47.442Z,38.87
2019-05-02T00:58:16.193Z,34.48
2019-05-02T01:00:53.142Z,35.63
2019-05-02T01:03:23.019Z,31.07
2019-05-02T01:05:52.009Z,35.00
2019-05-02T01:08:20.762Z,36.40
2019-05-02T01:10:52.172Z,32.23
2019-05-02T01:13:20.407Z,35.27
2019-05-02T01:15:49.296Z,36.03
2019-05-02T01:18:19.625Z,38.73
2019-05-02T01:20:48.369Z,39.10
2019-05-02T01:23:17.147Z,36.20
2019-05-02T01:25:47.204Z,38.97
2019-05-02T01:28:23.988Z,43.73
2019-05-02T01:31:06.329Z,36.00
2019-05-02T01:33:41.630Z,34.63
2019-05-02T01:36:12.202Z,39.73
2019-05-02T01:38:45.558Z,35.80
2019-05-02T01:41:14.333Z,35.38
2019-05-02T01:43:43.083Z,36.27
2019-05-02T01:46:11.866Z,36.57
2019-05-02T01:48:45.740Z,30.33
2019-05-02T01:51:12.109Z,33.02
2019-05-02T01:53:40.958Z,32.97
2019-05-02T01:56:09.734Z,34.37
2019-05-02T01:58:38.483Z,34.97
2019-05-02T02:01:07.361Z,39.23
2019-05-02T02:03:40.487Z,34.70
2019-05-02T02:06:08.066Z,30.47
2019-05-02T02:08:37.107Z,33.30
2019-05-02T02:11:05.881Z,35.70
2019-05-02T02:13:36.446Z,35.10
2019-05-02T02:16:05.931Z,35.80
2019-05-02T02:18:36.373Z,32.20
2019-05-02T02:21:20.014Z,32.30
2019-05-02T02:23:53.596Z,35.07
2019-05-02T02:26:24.027Z,32.30
2019-05-02T02:28:52.776Z,35.03
2019-05-02T02:31:22.345Z,31.48
2019-05-02T02:33:51.126Z,29.97
2019-05-02T02:36:29.529Z,31.00
2019-05-02T02:38:50.475Z,30.53
2019-05-02T02:41:19.237Z,28.85
2019-05-02T02:43:54.633Z,31.90
2019-05-02T02:46:21.677Z,36.30
2019-05-02T02:48:50.430Z,36.43
2019-05-02T02:51:23.812Z,30.70
2019-05-02T02:53:49.677Z,35.00
2019-05-02T02:56:18.465Z,31.23
2019-05-02T02:58:47.976Z,27.00
2019-05-02T03:01:27.290Z,35.03
2019-05-02T03:03:47.840Z,32.63
2019-05-02T03:06:16.587Z,31.95
2019-05-02T03:08:48.846Z,26.73
2019-05-02T03:11:23.238Z,31.00
2019-05-02T03:13:53.911Z,30.40
2019-05-02T03:16:24.513Z,32.75
2019-05-02T03:18:53.248Z,36.43
2019-05-02T03:21:22.623Z,33.87
2019-05-02T03:24:01.421Z,29.30
2019-05-02T03:26:22.150Z,27.55
2019-05-02T03:28:57.232Z,33.17
2019-05-02T03:31:25.277Z,37.23
2019-05-02T03:33:56.286Z,33.70
2019-05-02T03:36:35.483Z,29.67
2019-05-02T03:38:53.510Z,33.53
2019-05-02T03:41:23.641Z,33.63
2019-05-02T03:44:10.001Z,35.17
2019-05-02T03:46:23.237Z,31.80
2019-05-02T03:48:51.992Z,36.33
2019-05-02T03:51:24.707Z,35.55
2019-05-02T03:53:51.397Z,31.90
2019-05-02T03:56:20.180Z,33.43
2019-05-02T03:58:56.007Z,32.10
2019-05-02T04:01:20.186Z,40.25
2019-05-02T04:03:48.936Z,38.58
2019-05-02T04:06:20.961Z,33.43
2019-05-02T04:08:59.142Z,43.57
2019-05-02T04:11:22.894Z,43.05
2019-05-02T04:13:52.936Z,41.80
2019-05-02T04:16:22.794Z,37.93
2019-05-02T04:18:55.707Z,38.57
2019-05-02T04:21:25.915Z,38.70
2019-05-02T04:23:53.239Z,50.57
2019-05-02T04:26:21.977Z,40.83
2019-05-02T04:28:51.782Z,42.43
2019-05-02T04:31:24.904Z,36.40
2019-05-02T04:33:59.614Z,40.63
2019-05-02T04:36:28.463Z,39.40
2019-05-02T04:38:59.553Z,44.80
2019-05-02T04:41:29.268Z,40.20
2019-05-02T04:44:01.384Z,50.50
2019-05-02T04:46:31.184Z,51.18
2019-05-02T04:48:59.320Z,42.33
2019-05-02T04:51:31.797Z,51.40
2019-05-02T04:53:58.969Z,53.10
2019-05-02T04:56:28.513Z,49.40
2019-05-02T04:58:59.276Z,40.50
2019-05-02T05:01:33.144Z,55.00
2019-05-02T05:04:03.164Z,50.00
2019-05-02T05:06:29.001Z,32.07
2019-05-02T05:09:04.047Z,56.42
2019-05-02T05:11:28.519Z,64.87
2019-05-02T05:14:07.139Z,69.67
2019-05-02T05:16:37.283Z,63.40
2019-05-02T05:19:07.616Z,52.73
2019-05-02T05:21:37.402Z,57.80
2019-05-02T05:24:07.835Z,49.10
2019-05-02T05:26:42.745Z,52.37
2019-05-02T05:29:08.725Z,50.80
2019-05-02T05:31:38.219Z,55.83
2019-05-02T05:34:09.798Z,61.90
2019-05-02T05:36:39.991Z,48.17
2019-05-02T05:39:12.002Z,50.50
2019-05-02T05:41:42.654Z,56.13
2019-05-02T05:44:11.426Z,55.30
2019-05-02T05:46:42.517Z,50.27
2019-05-02T05:49:18.338Z,54.83
2019-05-02T05:51:41.329Z,55.07
2019-05-02T05:54:10.136Z,49.93
2019-05-02T05:56:42.900Z,78.87
2019-05-02T05:59:10.376Z,50.97
2019-05-02T06:01:39.401Z,50.30
2019-05-02T06:04:13.821Z,56.90
2019-05-02T06:06:43.562Z,57.03
2019-05-02T06:09:13.973Z,48.65
2019-05-02T06:11:43.071Z,58.20
2019-05-02T06:14:11.849Z,57.07
2019-05-02T06:16:40.706Z,63.90
2019-05-02T06:19:12.986Z,55.43
2019-05-02T06:21:44.824Z,53.43
2019-05-02T06:24:10.978Z,57.57
2019-05-02T06:26:39.893Z,58.23
2019-05-02T06:29:13.081Z,65.70
2019-05-02T06:31:43.092Z,54.23
2019-05-02T06:34:09.611Z,62.73
2019-05-02T06:36:38.391Z,59.07
2019-05-02T06:39:07.849Z,57.90
2019-05-02T06:41:36.590Z,58.37
2019-05-02T06:44:05.499Z,51.27
2019-05-02T06:46:34.302Z,54.73
2019-05-02T06:49:03.075Z,59.53
2019-05-02T06:51:31.889Z,59.37
2019-05-02T06:54:00.643Z,50.63
2019-05-02T06:56:29.441Z,57.03
2019-05-02T06:58:58.409Z,49.37
2019-05-02T07:01:27.290Z,46.93
2019-05-02T07:03:56.170Z,49.70
2019-05-02T07:06:25.422Z,53.63
2019-05-02T07:08:54.470Z,55.63
2019-05-02T07:11:23.314Z,49.83
2019-05-02T07:13:52.113Z,55.97
2019-05-02T07:16:37.167Z,53.57
2019-05-02T07:19:00.271Z,45.93
2019-05-02T07:21:29.159Z,63.40
2019-05-02T07:23:57.924Z,48.87
2019-05-02T07:26:26.680Z,59.57
2019-05-02T07:28:55.470Z,48.00
2019-05-02T07:31:24.214Z,45.77
2019-05-02T07:33:53.051Z,54.10
2019-05-02T07:36:21.798Z,51.08
2019-05-02T07:38:50.546Z,51.30
2019-05-02T07:41:19.358Z,51.92
2019-05-02T07:43:52.115Z,54.37
2019-05-02T07:46:21.000Z,48.40
2019-05-02T07:48:54.445Z,49.33
2019-05-02T07:51:22.814Z,50.88
2019-05-02T07:53:51.530Z,48.63
2019-05-02T07:56:20.317Z,58.08
2019-05-02T07:58:49.074Z,56.90
2019-05-02T08:01:17.874Z,49.13
2019-05-02T08:03:46.627Z,56.23
2019-05-02T08:06:15.386Z,58.40
2019-05-02T08:08:44.154Z,57.00
2019-05-02T08:11:13.065Z,55.17
2019-05-02T08:13:41.865Z,57.40
2019-05-02T08:16:10.654Z,57.48
2019-05-02T08:18:39.461Z,57.83
2019-05-02T08:21:08.298Z,63.00
2019-05-02T08:23:37.078Z,72.53
2019-05-02T08:26:05.972Z,65.00
2019-05-02T08:28:39.088Z,54.43
2019-05-02T08:31:07.971Z,54.90
2019-05-02T08:33:36.718Z,62.90
2019-05-02T08:36:05.513Z,55.57
2019-05-02T08:38:34.344Z,60.83
2019-05-02T08:41:03.096Z,53.87
2019-05-02T08:43:31.844Z,56.00
2019-05-02T08:46:00.721Z,62.03
2019-05-02T08:48:29.463Z,55.13
2019-05-02T08:50:58.424Z,62.80
2019-05-02T08:53:27.167Z,62.33
2019-05-02T08:55:55.926Z,58.23
2019-05-02T08:58:24.769Z,58.53
2019-05-02T09:00:53.576Z,59.43
2019-05-02T09:03:22.326Z,58.92
2019-05-02T09:05:51.069Z,54.90
2019-05-02T09:08:19.840Z,60.23
2019-05-02T09:10:48.606Z,54.20
2019-05-02T09:13:23.498Z,56.98
2019-05-02T09:15:51.314Z,53.87
2019-05-02T09:18:18.643Z,62.63
2019-05-02T09:20:52.577Z,61.93
2019-05-02T09:23:18.112Z,55.83
2019-05-02T09:25:46.867Z,53.63
2019-05-02T09:28:17.177Z,55.50
2019-05-02T09:30:46.850Z,53.07
2019-05-02T09:33:15.757Z,54.18
2019-05-02T09:35:44.600Z,51.93
2019-05-02T09:38:16.225Z,52.23
2019-05-02T09:40:47.154Z,46.97
2019-05-02T09:43:14.462Z,45.92
2019-05-02T09:45:44.036Z,50.03
2019-05-02T09:48:17.170Z,57.37
2019-05-02T09:50:43.647Z,52.90
2019-05-02T09:53:26.033Z,46.03
2019-05-02T09:56:10.153Z,46.47
2019-05-02T09:58:49.070Z,46.80
2019-05-02T10:01:26.959Z,51.70
2019-05-02T10:03:55.862Z,41.90
2019-05-02T10:06:24.806Z,47.50
2019-05-02T10:08:53.671Z,38.73
2019-05-02T10:11:26.036Z,46.33
2019-05-02T10:13:55.422Z,43.02
2019-05-02T10:16:27.158Z,42.60
2019-05-02T10:18:53.921Z,44.07
2019-05-02T10:21:22.983Z,43.87
2019-05-02T10:23:59.081Z,40.77
2019-05-02T10:26:24.465Z,38.08
2019-05-02T10:28:53.435Z,32.73
2019-05-02T10:31:27.644Z,35.20
2019-05-02T10:33:55.090Z,37.53
2019-05-02T10:36:24.121Z,39.13
2019-05-02T10:38:54.953Z,34.73
2019-05-02T10:41:24.681Z,37.87
2019-05-02T10:43:56.689Z,31.73
2019-05-02T10:46:41.737Z,30.87
2019-05-02T10:49:18.396Z,34.43
2019-05-02T10:51:49.569Z,31.12
2019-05-02T10:54:20.512Z,33.93
2019-05-02T10:56:48.142Z,35.63
2019-05-02T10:59:17.087Z,39.37
2019-05-02T11:01:49.860Z,38.03
2019-05-02T11:04:18.661Z,36.55
2019-05-02T11:06:47.511Z,41.03
2019-05-02T11:09:16.691Z,44.55
2019-05-02T11:11:47.005Z,46.70
2019-05-02T11:14:24.571Z,53.68
2019-05-02T11:16:58.107Z,52.57
2019-05-02T11:19:28.524Z,48.60
2019-05-02T11:21:59.104Z,50.30
2019-05-02T11:24:28.498Z,54.43
2019-05-02T11:26:57.867Z,51.97
2019-05-02T11:29:27.140Z,51.50
2019-05-02T11:32:02.783Z,58.90
2019-05-02T11:34:32.671Z,59.80
2019-05-02T11:37:01.820Z,70.03
2019-05-02T11:39:37.741Z,66.30
2019-05-02T11:42:02.123Z,68.33
2019-05-02T11:44:32.648Z,68.67
2019-05-02T11:47:02.090Z,75.40
2019-05-02T11:49:31.990Z,69.50
2019-05-02T11:52:04.348Z,84.60
2019-05-02T11:54:31.964Z,76.00
2019-05-02T11:57:02.276Z,76.53
2019-05-02T11:59:31.984Z,77.13
2019-05-02T12:02:09.326Z,73.90
2019-05-02T12:04:38.787Z,81.43
2019-05-02T12:07:07.583Z,71.87
2019-05-02T12:09:36.337Z,71.23
2019-05-02T12:12:05.503Z,75.03
2019-05-02T12:14:36.393Z,73.40
2019-05-02T12:17:05.233Z,70.70
2019-05-02T12:19:34.017Z,77.20
2019-05-02T12:22:07.205Z,74.90
2019-05-02T12:24:36.485Z,79.97
2019-05-02T12:27:05.171Z,69.43
2019-05-02T12:29:33.973Z,71.17
2019-05-02T12:32:02.769Z,69.27
2019-05-02T12:34:32.530Z,45.93
2019-05-02T12:37:01.807Z,56.63
2019-05-02T12:39:31.660Z,53.67
2019-05-02T12:42:02.643Z,58.23
2019-05-02T12:44:31.846Z,51.67
2019-05-02T12:47:02.486Z,56.23
2019-05-02T12:49:32.475Z,59.27
2019-05-02T12:52:01.820Z,54.77
2019-05-02T12:54:32.421Z,59.50
2019-05-02T12:57:02.055Z,58.17
2019-05-02T12:59:32.227Z,56.10
2019-05-02T13:02:02.663Z,53.27
2019-05-02T13:04:32.257Z,59.37
2019-05-02T13:07:02.155Z,57.35
2019-05-02T13:09:32.570Z,53.70
2019-05-02T13:12:03.192Z,56.57
2019-05-02T13:14:32.131Z,53.07
2019-05-02T13:17:05.233Z,56.17
2019-05-02T13:19:40.141Z,53.57
2019-05-02T13:22:06.719Z,56.37
2019-05-02T13:24:37.071Z,53.00
2019-05-02T13:27:08.737Z,51.03
2019-05-02T13:29:37.762Z,53.33
2019-05-02T13:32:08.785Z,47.60
2019-05-02T13:34:48.282Z,47.83
2019-05-02T13:37:15.770Z,45.07
2019-05-02T13:40:02.522Z,46.13
2019-05-02T13:42:33.583Z,41.63
2019-05-02T13:45:03.733Z,37.03
2019-05-02T13:47:32.969Z,42.27
2019-05-02T13:50:03.887Z,42.27
2019-05-02T13:52:34.397Z,34.70
2019-05-02T13:55:04.783Z,37.93
2019-05-02T13:57:34.921Z,40.90
2019-05-02T14:00:05.725Z,37.83
2019-05-02T14:02:37.459Z,35.73
2019-05-02T14:05:08.609Z,35.70
2019-05-02T14:07:37.599Z,41.43
2019-05-02T14:10:25.237Z,36.07
2019-05-02T14:12:55.699Z,35.13
2019-05-02T14:15:26.022Z,33.90
2019-05-02T14:17:54.769Z,35.37
2019-05-02T14:20:24.343Z,30.83
2019-05-02T14:22:53.184Z,33.73
2019-05-02T14:25:22.633Z,27.80
2019-05-02T14:27:55.336Z,28.63
2019-05-02T14:30:35.966Z,27.90
2019-05-02T14:32:54.375Z,27.03
2019-05-02T14:35:28.401Z,27.83
2019-05-02T14:38:10.138Z,27.40
2019-05-02T14:40:58.411Z,23.70
2019-05-02T14:43:48.007Z,24.70
2019-05-02T14:46:17.827Z,22.32
2019-05-02T14:48:46.473Z,23.70
2019-05-02T14:51:16.783Z,19.17
2019-05-02T14:53:45.792Z,20.17
2019-05-02T14:56:16.105Z,25.55
2019-05-02T14:58:44.908Z,17.50
2019-05-02T15:01:17.162Z,17.50
2019-05-02T15:03:44.171Z,21.53
2019-05-02T15:06:12.996Z,19.32
2019-05-02T15:08:44.725Z,16.13
2019-05-02T15:11:12.595Z,21.05
2019-05-02T15:13:43.595Z,18.90
2019-05-02T15:16:17.810Z,20.47
2019-05-02T15:18:42.418Z,22.40
2019-05-02T15:21:16.330Z,22.25
2019-05-02T15:23:43.283Z,20.13
2019-05-02T15:26:14.048Z,16.47
2019-05-02T15:28:42.549Z,21.33
2019-05-02T15:31:28.473Z,21.42
2019-05-02T15:34:01.537Z,16.20
2019-05-02T15:36:28.005Z,16.63
2019-05-02T15:38:56.748Z,15.90
2019-05-02T15:41:25.531Z,18.50
2019-05-02T15:43:54.334Z,17.37
2019-05-02T15:46:28.146Z,13.60
2019-05-02T15:48:57.262Z,18.93
2019-05-02T15:51:24.820Z,15.13
2019-05-02T15:54:06.123Z,14.03
2019-05-02T15:56:28.350Z,13.60
2019-05-02T15:59:02.421Z,13.80
2019-05-02T16:01:36.587Z,11.43
2019-05-02T16:04:07.034Z,9.30
2019-05-02T16:06:35.795Z,9.47
2019-05-02T16:09:07.071Z,13.10
2019-05-02T16:11:38.797Z,8.47
2019-05-02T16:14:12.798Z,8.40
2019-05-02T16:16:45.114Z,8.15
2019-05-02T16:19:14.916Z,7.83
2019-05-02T16:21:52.054Z,9.40
2019-05-02T16:24:22.903Z,5.78
2019-05-02T16:26:56.629Z,10.60
2019-05-02T16:29:34.898Z,14.00
2019-05-02T16:32:08.466Z,10.40
2019-05-02T16:34:54.753Z,9.20
2019-05-02T16:37:23.776Z,9.60
2019-05-02T16:39:52.681Z,9.17
2019-05-02T16:42:23.394Z,8.50
2019-05-02T16:44:54.777Z,9.70
2019-05-02T16:47:24.647Z,11.70
2019-05-02T16:50:04.515Z,6.03
2019-05-02T16:52:38.257Z,10.40
2019-05-02T16:55:07.501Z,12.03
2019-05-02T16:57:37.567Z,8.27
2019-05-02T17:00:12.816Z,8.37
2019-05-02T17:02:46.448Z,8.43
2019-05-02T17:05:16.586Z,6.10
2019-05-02T17:07:53.044Z,6.33
2019-05-02T17:10:32.198Z,14.10
2019-05-02T17:13:06.150Z,5.63
2019-05-02T17:15:38.455Z,8.87
2019-05-02T17:18:18.076Z,12.03
2019-05-02T17:20:38.347Z,8.60
2019-05-02T17:23:07.977Z,6.63
2019-05-02T17:25:36.812Z,5.73
2019-05-02T17:28:10.021Z,6.93
2019-05-02T17:30:39.432Z,4.53
2019-05-02T17:33:14.346Z,11.93
2019-05-02T17:35:48.797Z,5.93
2019-05-02T17:38:12.190Z,4.07
2019-05-02T17:40:42.184Z,5.03
2019-05-02T17:43:12.079Z,13.68
2019-05-02T17:45:42.330Z,7.40
2019-05-02T17:48:16.203Z,5.63
2019-05-02T17:50:49.342Z,4.93
2019-05-02T17:53:19.734Z,2.98
2019-05-02T17:55:52.629Z,2.20
2019-05-02T17:58:22.085Z,4.00
2019-05-02T18:00:57.210Z,2.00
2019-05-02T18:03:35.343Z,1.50
2019-05-02T18:06:13.256Z,3.07
2019-05-02T18:08:46.308Z,3.53
2019-05-02T18:11:17.242Z,3.08
2019-05-02T18:13:51.815Z,2.60
2019-05-02T18:16:24.136Z,1.70
2019-05-02T18:18:53.745Z,4.92
2019-05-02T18:21:28.928Z,5.15
2019-05-02T18:24:06.074Z,3.17
2019-05-02T18:26:34.148Z,5.43
2019-05-02T18:29:15.264Z,3.20
2019-05-02T18:31:47.333Z,9.43
2019-05-02T18:34:22.756Z,4.13
2019-05-02T18:36:47.494Z,2.30
2019-05-02T18:39:34.903Z,4.47
2019-05-02T18:41:55.095Z,3.97
2019-05-02T18:44:24.864Z,4.10
2019-05-02T18:47:02.307Z,2.07
2019-05-02T18:49:32.146Z,2.87
2019-05-02T18:52:01.929Z,5.67
2019-05-02T18:54:33.798Z,8.33
2019-05-02T18:57:09.356Z,4.13
2019-05-02T18:59:38.640Z,4.43
2019-05-02T19:02:07.796Z,6.77
2019-05-02T19:04:39.726Z,3.10
2019-05-02T19:07:14.286Z,7.00
2019-05-02T19:09:48.455Z,3.33
2019-05-02T19:12:21.517Z,2.72
2019-05-02T19:14:42.099Z,6.60
2019-05-02T19:17:12.246Z,4.17
2019-05-02T19:19:41.919Z,4.13
2019-05-02T19:22:13.217Z,8.03
2019-05-02T19:24:45.185Z,10.80
2019-05-02T19:27:15.672Z,5.87
2019-05-02T19:29:48.107Z,4.60
2019-05-02T19:32:17.042Z,5.53
2019-05-02T19:34:46.858Z,3.93
2019-05-02T19:37:17.731Z,4.67
2019-05-02T19:39:48.703Z,8.50
2019-05-02T19:42:22.660Z,8.08
2019-05-02T19:44:50.363Z,6.13
2019-05-02T19:47:19.590Z,3.10
2019-05-02T19:49:52.725Z,3.53
2019-05-02T19:52:34.386Z,5.17
2019-05-02T19:55:14.019Z,4.77
2019-05-02T19:57:38.129Z,4.93
2019-05-02T20:00:07.905Z,6.20
2019-05-02T20:02:37.613Z,4.43
2019-05-02T20:05:09.214Z,8.20
2019-05-02T20:07:38.608Z,5.40
2019-05-02T20:10:08.630Z,5.25
2019-05-02T20:12:42.432Z,8.45
2019-05-02T20:15:11.997Z,6.90
2019-05-02T20:17:41.669Z,7.73
2019-05-02T20:20:21.664Z,6.53
2019-05-02T20:22:52.354Z,10.53
2019-05-02T20:25:22.780Z,7.60
2019-05-02T20:27:52.581Z,7.53
2019-05-02T20:30:22.510Z,7.67
2019-05-02T20:32:51.785Z,9.40
2019-05-02T20:35:22.586Z,7.43
2019-05-02T20:37:52.572Z,13.50
2019-05-02T20:40:31.658Z,9.17
2019-05-02T20:43:00.099Z,8.80
2019-05-02T20:45:29.005Z,9.63
2019-05-02T20:47:57.963Z,8.90
2019-05-02T20:50:26.736Z,9.53
2019-05-02T20:52:56.580Z,7.07
2019-05-02T20:55:26.583Z,7.87
2019-05-02T20:57:56.453Z,4.10
2019-05-02T21:00:32.261Z,35.40
2019-05-02T21:03:02.683Z,8.50
2019-05-02T21:05:36.731Z,11.50
2019-05-02T21:08:08.298Z,9.13
2019-05-02T21:10:41.629Z,7.63
2019-05-02T21:13:12.678Z,13.37
2019-05-02T21:15:42.327Z,8.00
2019-05-02T21:18:12.066Z,14.58
2019-05-02T21:20:41.908Z,12.47
2019-05-02T21:23:11.715Z,5.80
2019-05-02T21:25:41.750Z,9.30
2019-05-02T21:28:11.980Z,12.80
2019-05-02T21:30:41.780Z,9.83
2019-05-02T21:33:32.106Z,10.28
2019-05-02T21:36:01.223Z,7.33
2019-05-02T21:38:31.830Z,10.17
2019-05-02T21:41:00.449Z,8.93
2019-05-02T21:43:29.258Z,14.80
2019-05-02T21:45:58.109Z,11.00
2019-05-02T21:48:28.190Z,8.40
2019-05-02T21:51:02.573Z,12.27
2019-05-02T21:53:55.415Z,9.30
2019-05-02T21:56:24.223Z,13.27
2019-05-02T21:59:06.053Z,6.77
2019-05-02T22:01:38.138Z,8.83
2019-05-02T22:04:06.977Z,8.20
2019-05-02T22:06:35.830Z,10.70
2019-05-02T22:09:07.737Z,13.57
2019-05-02T22:11:36.943Z,14.77
2019-05-02T22:14:06.382Z,10.20
2019-05-02T22:16:35.429Z,12.60
2019-05-02T22:19:05.500Z,14.30
2019-05-02T22:21:35.182Z,30.53
2019-05-02T22:24:11.200Z,11.25
2019-05-02T22:26:35.947Z,14.50
2019-05-02T22:29:05.699Z,21.02
2019-05-02T22:31:34.533Z,14.10
2019-05-02T22:34:03.338Z,11.10
2019-05-02T22:36:32.766Z,16.40
2019-05-02T22:39:19.207Z,9.00
2019-05-02T22:41:48.212Z,13.50
2019-05-02T22:44:16.952Z,11.35
2019-05-02T22:46:46.316Z,9.40
2019-05-02T22:49:15.443Z,10.98
2019-05-02T22:51:44.478Z,11.83
2019-05-02T22:54:24.154Z,14.83
2019-05-02T22:56:44.128Z,11.63
2019-05-02T22:59:12.892Z,13.03
2019-05-02T23:01:42.328Z,14.23
2019-05-02T23:04:12.828Z,10.23
2019-05-02T23:06:43.927Z,12.37
2019-05-02T23:09:12.875Z,10.50
2019-05-02T23:11:42.581Z,17.03
2019-05-02T23:14:11.628Z,9.00
2019-05-02T23:16:42.766Z,10.33
2019-05-02T23:19:12.266Z,15.17
2019-05-02T23:21:42.321Z,11.17
2019-05-02T23:24:14.665Z,15.53
2019-05-02T23:26:45.089Z,10.07
2019-05-02T23:29:15.427Z,13.93
2019-05-02T23:31:44.216Z,15.18
2019-05-02T23:34:13.122Z,11.60
2019-05-02T23:36:42.076Z,14.20
2019-05-02T23:39:12.505Z,13.20
2019-05-02T23:41:42.122Z,12.67
2019-05-02T23:44:12.295Z,10.57
2019-05-02T23:46:42.433Z,12.57
2019-05-02T23:49:12.694Z,14.73
2019-05-02T23:51:42.651Z,12.33
2019-05-02T23:54:12.907Z,9.33
2019-05-02T23:56:47.498Z,13.47
2019-05-02T23:59:16.282Z,10.40
